sensor_id;sensor_type;location;lat;lon;timestamp;pressure;altitude;pressure_sealevel;temperature
37452;BMP280;23314;51.114;6.900;2022-07-06T00:01:13;102215.66;;;16.17
37452;BMP280;23314;51.114;6.900;2022-07-06T00:03:38;102216.50;;;16.14
37452;BMP280;23314;51.114;6.900;2022-07-06T00:06:04;102222.72;;;16.08
37452;BMP280;23314;51.114;6.900;2022-07-06T00:08:29;102216.25;;;16.01
37452;BMP280;23314;51.114;6.900;2022-07-06T00:10:55;102223.25;;;15.95
37452;BMP280;23314;51.114;6.900;2022-07-06T00:13:20;102221.78;;;15.91
37452;BMP280;23314;51.114;6.900;2022-07-06T00:15:45;102223.41;;;15.84
37452;BMP280;23314;51.114;6.900;2022-07-06T00:18:11;102227.69;;;15.78
37452;BMP280;23314;51.114;6.900;2022-07-06T00:20:36;102220.84;;;15.74
37452;BMP280;23314;51.114;6.900;2022-07-06T00:23:01;102226.63;;;15.72
37452;BMP280;23314;51.114;6.900;2022-07-06T00:25:27;102225.13;;;15.67
37452;BMP280;23314;51.114;6.900;2022-07-06T00:27:52;102221.78;;;15.60
37452;BMP280;23314;51.114;6.900;2022-07-06T00:30:17;102217.59;;;15.55
37452;BMP280;23314;51.114;6.900;2022-07-06T00:32:42;102220.31;;;15.51
37452;BMP280;23314;51.114;6.900;2022-07-06T00:35:08;102222.31;;;15.47
37452;BMP280;23314;51.114;6.900;2022-07-06T00:37:33;102217.38;;;15.42
37452;BMP280;23314;51.114;6.900;2022-07-06T00:39:59;102212.06;;;15.35
37452;BMP280;23314;51.114;6.900;2022-07-06T00:42:24;102218.22;;;15.32
37452;BMP280;23314;51.114;6.900;2022-07-06T00:44:50;102220.59;;;15.26
37452;BMP280;23314;51.114;6.900;2022-07-06T00:47:15;102216.41;;;15.22
37452;BMP280;23314;51.114;6.900;2022-07-06T00:49:41;102223.75;;;15.17
37452;BMP280;23314;51.114;6.900;2022-07-06T00:52:25;102223.44;;;15.12
37452;BMP280;23314;51.114;6.900;2022-07-06T00:54:51;102228.81;;;15.08
37452;BMP280;23314;51.114;6.900;2022-07-06T00:57:17;102222.72;;;15.04
37452;BMP280;23314;51.114;6.900;2022-07-06T00:59:43;102225.06;;;14.98
37452;BMP280;23314;51.114;6.900;2022-07-06T01:02:08;102222.81;;;14.93
37452;BMP280;23314;51.114;6.900;2022-07-06T01:04:33;102229.75;;;14.91
37452;BMP280;23314;51.114;6.900;2022-07-06T01:06:59;102232.47;;;14.87
37452;BMP280;23314;51.114;6.900;2022-07-06T01:09:24;102233.25;;;14.84
37452;BMP280;23314;51.114;6.900;2022-07-06T01:11:50;102226.75;;;14.78
37452;BMP280;23314;51.114;6.900;2022-07-06T01:14:15;102222.97;;;14.75
37452;BMP280;23314;51.114;6.900;2022-07-06T01:16:43;102218.78;;;14.70
37452;BMP280;23314;51.114;6.900;2022-07-06T01:19:08;102221.47;;;14.67
37452;BMP280;23314;51.114;6.900;2022-07-06T01:21:33;102228.06;;;14.62
37452;BMP280;23314;51.114;6.900;2022-07-06T01:23:59;102218.81;;;14.60
37452;BMP280;23314;51.114;6.900;2022-07-06T01:26:24;102218.09;;;14.56
37452;BMP280;23314;51.114;6.900;2022-07-06T01:28:51;102226.56;;;14.54
37452;BMP280;23314;51.114;6.900;2022-07-06T01:31:24;102218.53;;;14.50
37452;BMP280;23314;51.114;6.900;2022-07-06T01:33:52;102227.75;;;14.46
37452;BMP280;23314;51.114;6.900;2022-07-06T01:36:18;102224.34;;;14.42
37452;BMP280;23314;51.114;6.900;2022-07-06T01:38:53;102232.41;;;14.38
37452;BMP280;23314;51.114;6.900;2022-07-06T01:41:19;102230.13;;;14.36
37452;BMP280;23314;51.114;6.900;2022-07-06T01:43:46;102227.06;;;14.31
37452;BMP280;23314;51.114;6.900;2022-07-06T01:46:12;102222.09;;;14.29
37452;BMP280;23314;51.114;6.900;2022-07-06T01:48:37;102223.66;;;14.27
37452;BMP280;23314;51.114;6.900;2022-07-06T01:51:04;102219.81;;;14.24
37452;BMP280;23314;51.114;6.900;2022-07-06T01:53:29;102223.66;;;14.23
37452;BMP280;23314;51.114;6.900;2022-07-06T01:55:55;102212.97;;;14.19
37452;BMP280;23314;51.114;6.900;2022-07-06T01:58:20;102216.41;;;14.16
37452;BMP280;23314;51.114;6.900;2022-07-06T02:00:45;102212.63;;;14.14
37452;BMP280;23314;51.114;6.900;2022-07-06T02:03:10;102212.59;;;14.10
37452;BMP280;23314;51.114;6.900;2022-07-06T02:05:36;102210.69;;;14.11
37452;BMP280;23314;51.114;6.900;2022-07-06T02:08:01;102212.25;;;14.08
37452;BMP280;23314;51.114;6.900;2022-07-06T02:10:26;102220.69;;;14.07
37452;BMP280;23314;51.114;6.900;2022-07-06T02:12:52;102218.41;;;14.05
37452;BMP280;23314;51.114;6.900;2022-07-06T02:15:17;102221.44;;;14.07
37452;BMP280;23314;51.114;6.900;2022-07-06T02:17:42;102223.75;;;14.09
37452;BMP280;23314;51.114;6.900;2022-07-06T02:20:08;102217.22;;;14.06
37452;BMP280;23314;51.114;6.900;2022-07-06T02:22:34;102229.50;;;14.07
37452;BMP280;23314;51.114;6.900;2022-07-06T02:24:59;102226.44;;;14.05
37452;BMP280;23314;51.114;6.900;2022-07-06T02:27:24;102222.63;;;14.02
37452;BMP280;23314;51.114;6.900;2022-07-06T02:29:50;102221.09;;;14.01
37452;BMP280;23314;51.114;6.900;2022-07-06T02:32:16;102221.09;;;14.01
37452;BMP280;23314;51.114;6.900;2022-07-06T02:34:41;102227.25;;;14.02
37452;BMP280;23314;51.114;6.900;2022-07-06T02:37:07;102226.09;;;14.03
37452;BMP280;23314;51.114;6.900;2022-07-06T02:39:32;102223.03;;;14.01
37452;BMP280;23314;51.114;6.900;2022-07-06T02:41:57;102216.50;;;13.98
37452;BMP280;23314;51.114;6.900;2022-07-06T02:44:23;102215.72;;;13.98
37452;BMP280;23314;51.114;6.900;2022-07-06T02:46:48;102217.28;;;13.95
37452;BMP280;23314;51.114;6.900;2022-07-06T02:49:13;102213.06;;;13.94
37452;BMP280;23314;51.114;6.900;2022-07-06T02:51:39;102209.22;;;13.92
37452;BMP280;23314;51.114;6.900;2022-07-06T02:54:04;102217.28;;;13.92
37452;BMP280;23314;51.114;6.900;2022-07-06T02:56:29;102210.81;;;13.89
37452;BMP280;23314;51.114;6.900;2022-07-06T02:58:55;102227.66;;;13.86
37452;BMP280;23314;51.114;6.900;2022-07-06T03:01:20;102220.75;;;13.85
37452;BMP280;23314;51.114;6.900;2022-07-06T03:03:46;102224.22;;;13.82
37452;BMP280;23314;51.114;6.900;2022-07-06T03:06:11;102232.28;;;13.78
37452;BMP280;23314;51.114;6.900;2022-07-06T03:08:36;102229.25;;;13.76
37452;BMP280;23314;51.114;6.900;2022-07-06T03:11:02;102231.16;;;13.72
37452;BMP280;23314;51.114;6.900;2022-07-06T03:13:28;102225.00;;;13.71
37452;BMP280;23314;51.114;6.900;2022-07-06T03:15:54;102226.56;;;13.69
37452;BMP280;23314;51.114;6.900;2022-07-06T03:18:20;102225.44;;;13.66
37452;BMP280;23314;51.114;6.900;2022-07-06T03:20:45;102230.78;;;13.63
37452;BMP280;23314;51.114;6.900;2022-07-06T03:23:10;102227.34;;;13.62
37452;BMP280;23314;51.114;6.900;2022-07-06T03:25:36;102229.25;;;13.58
37452;BMP280;23314;51.114;6.900;2022-07-06T03:30:35;102244.59;;;13.54
37452;BMP280;23314;51.114;6.900;2022-07-06T03:33:00;102248.41;;;13.53
37452;BMP280;23314;51.114;6.900;2022-07-06T03:35:25;102251.88;;;13.53
37452;BMP280;23314;51.114;6.900;2022-07-06T03:37:51;102240.78;;;13.55
37452;BMP280;23314;51.114;6.900;2022-07-06T03:40:16;102240.03;;;13.54
37452;BMP280;23314;51.114;6.900;2022-07-06T03:42:41;102243.44;;;13.55
37452;BMP280;23314;51.114;6.900;2022-07-06T03:45:07;102235.03;;;13.57
37452;BMP280;23314;51.114;6.900;2022-07-06T03:47:33;102241.94;;;13.58
37452;BMP280;23314;51.114;6.900;2022-07-06T03:49:58;102243.44;;;13.59
37452;BMP280;23314;51.114;6.900;2022-07-06T03:52:23;102248.03;;;13.62
37452;BMP280;23314;51.114;6.900;2022-07-06T03:54:49;102240.38;;;13.60
37452;BMP280;23314;51.114;6.900;2022-07-06T03:57:14;102249.56;;;13.63
37452;BMP280;23314;51.114;6.900;2022-07-06T03:59:40;102243.44;;;13.69
37452;BMP280;23314;51.114;6.900;2022-07-06T04:02:05;102244.94;;;13.74
37452;BMP280;23314;51.114;6.900;2022-07-06T04:04:31;102247.97;;;13.83
37452;BMP280;23314;51.114;6.900;2022-07-06T04:06:56;102250.28;;;13.89
37452;BMP280;23314;51.114;6.900;2022-07-06T04:09:22;102241.44;;;13.95
37452;BMP280;23314;51.114;6.900;2022-07-06T04:11:47;102251.75;;;14.00
37452;BMP280;23314;51.114;6.900;2022-07-06T04:14:12;102246.00;;;14.06
37452;BMP280;23314;51.114;6.900;2022-07-06T04:16:38;102239.81;;;14.19
37452;BMP280;23314;51.114;6.900;2022-07-06T04:19:03;102246.31;;;14.78
37452;BMP280;23314;51.114;6.900;2022-07-06T04:21:29;102246.34;;;15.62
37452;BMP280;23314;51.114;6.900;2022-07-06T04:23:54;102250.19;;;16.26
37452;BMP280;23314;51.114;6.900;2022-07-06T04:26:19;102248.06;;;16.65
37452;BMP280;23314;51.114;6.900;2022-07-06T04:28:44;102243.06;;;16.87
37452;BMP280;23314;51.114;6.900;2022-07-06T04:31:10;102258.13;;;16.84
37452;BMP280;23314;51.114;6.900;2022-07-06T04:33:35;102258.19;;;16.57
37452;BMP280;23314;51.114;6.900;2022-07-06T04:36:01;102256.56;;;16.36
37452;BMP280;23314;51.114;6.900;2022-07-06T04:38:26;102259.56;;;16.42
37452;BMP280;23314;51.114;6.900;2022-07-06T04:40:51;102254.09;;;16.49
37452;BMP280;23314;51.114;6.900;2022-07-06T04:43:16;102259.66;;;16.62
37452;BMP280;23314;51.114;6.900;2022-07-06T04:45:42;102260.19;;;16.49
37452;BMP280;23314;51.114;6.900;2022-07-06T04:48:07;102265.50;;;16.29
37452;BMP280;23314;51.114;6.900;2022-07-06T04:50:34;102260.34;;;16.11
37452;BMP280;23314;51.114;6.900;2022-07-06T04:52:59;102263.94;;;16.05
37452;BMP280;23314;51.114;6.900;2022-07-06T04:55:24;102265.25;;;16.20
37452;BMP280;23314;51.114;6.900;2022-07-06T04:57:50;102269.66;;;16.34
37452;BMP280;23314;51.114;6.900;2022-07-06T05:00:17;102270.28;;;16.45
37452;BMP280;23314;51.114;6.900;2022-07-06T05:02:42;102270.97;;;16.49
37452;BMP280;23314;51.114;6.900;2022-07-06T05:05:08;102270.88;;;16.57
37452;BMP280;23314;51.114;6.900;2022-07-06T05:07:35;102268.47;;;16.62
37452;BMP280;23314;51.114;6.900;2022-07-06T05:10:06;102271.84;;;16.70
37452;BMP280;23314;51.114;6.900;2022-07-06T05:12:31;102272.06;;;16.79
37452;BMP280;23314;51.114;6.900;2022-07-06T05:14:57;102270.75;;;16.91
37452;BMP280;23314;51.114;6.900;2022-07-06T05:17:22;102274.47;;;16.97
37452;BMP280;23314;51.114;6.900;2022-07-06T05:19:48;102273.94;;;17.06
37452;BMP280;23314;51.114;6.900;2022-07-06T05:22:13;102274.09;;;17.19
37452;BMP280;23314;51.114;6.900;2022-07-06T05:24:39;102269.25;;;17.30
37452;BMP280;23314;51.114;6.900;2022-07-06T05:27:04;102267.41;;;17.47
37452;BMP280;23314;51.114;6.900;2022-07-06T05:29:29;102273.56;;;17.68
37452;BMP280;23314;51.114;6.900;2022-07-06T05:31:55;102271.34;;;17.83
37452;BMP280;23314;51.114;6.900;2022-07-06T05:34:20;102263.53;;;17.88
37452;BMP280;23314;51.114;6.900;2022-07-06T05:36:45;102275.50;;;18.04
37452;BMP280;23314;51.114;6.900;2022-07-06T05:39:11;102271.25;;;18.23
37452;BMP280;23314;51.114;6.900;2022-07-06T05:41:36;102272.00;;;18.40
37452;BMP280;23314;51.114;6.900;2022-07-06T05:44:01;102270.50;;;18.55
37452;BMP280;23314;51.114;6.900;2022-07-06T05:46:27;102274.69;;;18.73
37452;BMP280;23314;51.114;6.900;2022-07-06T05:48:53;102275.28;;;18.81
37452;BMP280;23314;51.114;6.900;2022-07-06T05:51:37;102272.06;;;18.86
37452;BMP280;23314;51.114;6.900;2022-07-06T05:54:02;102281.25;;;18.88
37452;BMP280;23314;51.114;6.900;2022-07-06T05:56:28;102280.34;;;18.79
37452;BMP280;23314;51.114;6.900;2022-07-06T05:58:53;102277.84;;;18.71
37452;BMP280;23314;51.114;6.900;2022-07-06T06:01:18;102280.44;;;18.58
37452;BMP280;23314;51.114;6.900;2022-07-06T06:03:43;102296.66;;;18.42
37452;BMP280;23314;51.114;6.900;2022-07-06T06:06:09;102288.97;;;18.40
37452;BMP280;23314;51.114;6.900;2022-07-06T06:08:34;102287.72;;;18.45
37452;BMP280;23314;51.114;6.900;2022-07-06T06:10:59;102285.34;;;18.47
37452;BMP280;23314;51.114;6.900;2022-07-06T06:13:25;102291.19;;;18.46
37452;BMP280;23314;51.114;6.900;2022-07-06T06:15:50;102293.53;;;18.44
37452;BMP280;23314;51.114;6.900;2022-07-06T06:18:15;102298.94;;;18.44
37452;BMP280;23314;51.114;6.900;2022-07-06T06:20:44;102297.78;;;18.45
37452;BMP280;23314;51.114;6.900;2022-07-06T06:23:10;102295.13;;;18.41
37452;BMP280;23314;51.114;6.900;2022-07-06T06:25:37;102291.69;;;18.40
37452;BMP280;23314;51.114;6.900;2022-07-06T06:28:05;102294.56;;;18.33
37452;BMP280;23314;51.114;6.900;2022-07-06T06:30:31;102297.91;;;18.21
37452;BMP280;23314;51.114;6.900;2022-07-06T06:35:35;102297.41;;;18.26
37452;BMP280;23314;51.114;6.900;2022-07-06T06:38:00;102298.84;;;18.31
37452;BMP280;23314;51.114;6.900;2022-07-06T06:40:26;102304.16;;;18.34
37452;BMP280;23314;51.114;6.900;2022-07-06T06:42:51;102293.97;;;18.42
37452;BMP280;23314;51.114;6.900;2022-07-06T06:45:16;102310.25;;;18.55
37452;BMP280;23314;51.114;6.900;2022-07-06T06:47:42;102307.72;;;18.64
37452;BMP280;23314;51.114;6.900;2022-07-06T06:50:07;102304.09;;;18.71
37452;BMP280;23314;51.114;6.900;2022-07-06T06:52:32;102303.50;;;18.80
37452;BMP280;23314;51.114;6.900;2022-07-06T06:54:58;102304.81;;;19.04
37452;BMP280;23314;51.114;6.900;2022-07-06T06:57:23;102301.38;;;19.46
37452;BMP280;23314;51.114;6.900;2022-07-06T06:59:49;102305.97;;;19.75
37452;BMP280;23314;51.114;6.900;2022-07-06T07:02:14;102305.34;;;20.09
37452;BMP280;23314;51.114;6.900;2022-07-06T07:04:39;102286.69;;;20.24
37452;BMP280;23314;51.114;6.900;2022-07-06T07:07:04;102297.38;;;20.41
37452;BMP280;23314;51.114;6.900;2022-07-06T07:09:30;102302.75;;;20.54
37452;BMP280;23314;51.114;6.900;2022-07-06T07:11:55;102303.00;;;20.46
37452;BMP280;23314;51.114;6.900;2022-07-06T07:14:21;102303.97;;;20.53
37452;BMP280;23314;51.114;6.900;2022-07-06T07:16:46;102303.09;;;20.56
37452;BMP280;23314;51.114;6.900;2022-07-06T07:19:11;102308.56;;;20.43
37452;BMP280;23314;51.114;6.900;2022-07-06T07:21:37;102307.38;;;20.31
37452;BMP280;23314;51.114;6.900;2022-07-06T07:24:02;102307.03;;;20.29
37452;BMP280;23314;51.114;6.900;2022-07-06T07:26:28;102311.59;;;20.19
37452;BMP280;23314;51.114;6.900;2022-07-06T07:28:53;102307.41;;;20.05
37452;BMP280;23314;51.114;6.900;2022-07-06T07:31:19;102318.34;;;20.02
37452;BMP280;23314;51.114;6.900;2022-07-06T07:33:44;102311.09;;;19.99
37452;BMP280;23314;51.114;6.900;2022-07-06T07:36:09;102311.75;;;20.03
37452;BMP280;23314;51.114;6.900;2022-07-06T07:38:34;102316.25;;;20.19
37452;BMP280;23314;51.114;6.900;2022-07-06T07:41:00;102313.66;;;20.28
37452;BMP280;23314;51.114;6.900;2022-07-06T07:43:25;102308.13;;;20.32
37452;BMP280;23314;51.114;6.900;2022-07-06T07:45:50;102310.84;;;20.32
37452;BMP280;23314;51.114;6.900;2022-07-06T07:48:16;102309.03;;;20.16
37452;BMP280;23314;51.114;6.900;2022-07-06T07:50:42;102318.69;;;20.17
37452;BMP280;23314;51.114;6.900;2022-07-06T07:53:07;102313.56;;;20.32
37452;BMP280;23314;51.114;6.900;2022-07-06T07:55:33;102314.94;;;20.49
37452;BMP280;23314;51.114;6.900;2022-07-06T07:57:58;102309.81;;;20.64
37452;BMP280;23314;51.114;6.900;2022-07-06T08:00:24;102313.81;;;20.94
37452;BMP280;23314;51.114;6.900;2022-07-06T08:02:49;102313.69;;;21.20
37452;BMP280;23314;51.114;6.900;2022-07-06T08:05:15;102324.59;;;21.29
37452;BMP280;23314;51.114;6.900;2022-07-06T08:07:43;102318.97;;;21.24
37452;BMP280;23314;51.114;6.900;2022-07-06T08:10:09;102320.81;;;21.27
37452;BMP280;23314;51.114;6.900;2022-07-06T08:12:35;102318.25;;;21.23
37452;BMP280;23314;51.114;6.900;2022-07-06T08:15:01;102322.66;;;21.30
37452;BMP280;23314;51.114;6.900;2022-07-06T08:17:27;102322.66;;;21.30
37452;BMP280;23314;51.114;6.900;2022-07-06T08:19:52;102313.69;;;21.20
37452;BMP280;23314;51.114;6.900;2022-07-06T08:22:18;102313.38;;;21.18
37452;BMP280;23314;51.114;6.900;2022-07-06T08:24:43;102312.22;;;21.28
37452;BMP280;23314;51.114;6.900;2022-07-06T08:27:08;102306.44;;;21.48
37452;BMP280;23314;51.114;6.900;2022-07-06T08:29:34;102309.84;;;21.62
37452;BMP280;23314;51.114;6.900;2022-07-06T08:31:59;102302.94;;;21.70
37452;BMP280;23314;51.114;6.900;2022-07-06T08:34:24;102302.50;;;21.72
37452;BMP280;23314;51.114;6.900;2022-07-06T08:36:50;102297.41;;;21.83
37452;BMP280;23314;51.114;6.900;2022-07-06T08:39:16;102294.31;;;22.12
37452;BMP280;23314;51.114;6.900;2022-07-06T08:41:42;102299.75;;;22.21
37452;BMP280;23314;51.114;6.900;2022-07-06T08:44:10;102292.06;;;22.20
37452;BMP280;23314;51.114;6.900;2022-07-06T08:46:38;102296.13;;;22.15
37452;BMP280;23314;51.114;6.900;2022-07-06T08:49:06;102299.78;;;22.31
37452;BMP280;23314;51.114;6.900;2022-07-06T08:51:31;102303.25;;;22.59
37452;BMP280;23314;51.114;6.900;2022-07-06T08:53:57;102303.41;;;22.74
37452;BMP280;23314;51.114;6.900;2022-07-06T08:56:23;102288.72;;;22.81
37452;BMP280;23314;51.114;6.900;2022-07-06T08:58:49;102301.41;;;23.02
37452;BMP280;23314;51.114;6.900;2022-07-06T09:01:16;102289.97;;;23.22
37452;BMP280;23314;51.114;6.900;2022-07-06T09:03:43;102302.22;;;23.27
37452;BMP280;23314;51.114;6.900;2022-07-06T09:06:10;102310.91;;;23.07
37452;BMP280;23314;51.114;6.900;2022-07-06T09:08:36;102302.75;;;22.88
37452;BMP280;23314;51.114;6.900;2022-07-06T09:11:03;102305.22;;;22.77
37452;BMP280;23314;51.114;6.900;2022-07-06T09:13:28;102304.31;;;22.62
37452;BMP280;23314;51.114;6.900;2022-07-06T09:15:54;102305.34;;;22.46
37452;BMP280;23314;51.114;6.900;2022-07-06T09:18:21;102306.28;;;22.43
37452;BMP280;23314;51.114;6.900;2022-07-06T09:20:46;102301.13;;;22.45
37452;BMP280;23314;51.114;6.900;2022-07-06T09:23:16;102304.00;;;22.41
37452;BMP280;23314;51.114;6.900;2022-07-06T09:25:41;102307.94;;;22.49
37452;BMP280;23314;51.114;6.900;2022-07-06T09:28:07;102303.84;;;22.54
37452;BMP280;23314;51.114;6.900;2022-07-06T09:30:32;102305.81;;;22.63
37452;BMP280;23314;51.114;6.900;2022-07-06T09:32:58;102297.66;;;22.63
37452;BMP280;23314;51.114;6.900;2022-07-06T09:35:35;102305.69;;;22.66
37452;BMP280;23314;51.114;6.900;2022-07-06T09:38:14;102304.16;;;22.56
37452;BMP280;23314;51.114;6.900;2022-07-06T09:40:41;102305.06;;;22.71
37452;BMP280;23314;51.114;6.900;2022-07-06T09:45:34;102301.81;;;23.10
37452;BMP280;23314;51.114;6.900;2022-07-06T09:48:08;102300.47;;;23.15
37452;BMP280;23314;51.114;6.900;2022-07-06T09:50:45;102297.25;;;23.25
37452;BMP280;23314;51.114;6.900;2022-07-06T09:53:12;102300.13;;;23.22
37452;BMP280;23314;51.114;6.900;2022-07-06T09:55:38;102296.56;;;23.06
37452;BMP280;23314;51.114;6.900;2022-07-06T09:58:04;102304.59;;;22.82
37452;BMP280;23314;51.114;6.900;2022-07-06T10:00:29;102309.00;;;22.61
37452;BMP280;23314;51.114;6.900;2022-07-06T10:02:55;102299.47;;;22.47
37452;BMP280;23314;51.114;6.900;2022-07-06T10:05:21;102300.81;;;22.33
37452;BMP280;23314;51.114;6.900;2022-07-06T10:07:58;102297.06;;;22.31
37452;BMP280;23314;51.114;6.900;2022-07-06T10:10:28;102293.88;;;22.32
37452;BMP280;23314;51.114;6.900;2022-07-06T10:12:55;102305.22;;;22.40
37452;BMP280;23314;51.114;6.900;2022-07-06T10:15:24;102305.22;;;22.68
37452;BMP280;23314;51.114;6.900;2022-07-06T10:17:50;102296.41;;;22.91
37452;BMP280;23314;51.114;6.900;2022-07-06T10:20:16;102290.72;;;23.23
37452;BMP280;23314;51.114;6.900;2022-07-06T10:22:42;102288.69;;;23.51
37452;BMP280;23314;51.114;6.900;2022-07-06T10:25:08;102292.06;;;23.70
37452;BMP280;23314;51.114;6.900;2022-07-06T10:27:34;102287.84;;;23.93
37452;BMP280;23314;51.114;6.900;2022-07-06T10:30:00;102295.38;;;23.98
37452;BMP280;23314;51.114;6.900;2022-07-06T10:32:26;102295.72;;;23.91
37452;BMP280;23314;51.114;6.900;2022-07-06T10:34:52;102289.59;;;23.82
37452;BMP280;23314;51.114;6.900;2022-07-06T10:37:27;102291.19;;;23.88
37452;BMP280;23314;51.114;6.900;2022-07-06T10:39:52;102281.81;;;23.89
37452;BMP280;23314;51.114;6.900;2022-07-06T10:42:46;102280.19;;;23.83
37452;BMP280;23314;51.114;6.900;2022-07-06T10:45:16;102290.56;;;23.93
37452;BMP280;23314;51.114;6.900;2022-07-06T10:47:45;102284.41;;;24.08
37452;BMP280;23314;51.114;6.900;2022-07-06T10:50:11;102277.88;;;24.29
37452;BMP280;23314;51.114;6.900;2022-07-06T10:52:57;102280.63;;;24.59
37452;BMP280;23314;51.114;6.900;2022-07-06T10:55:30;102282.25;;;24.96
37452;BMP280;23314;51.114;6.900;2022-07-06T10:57:56;102275.66;;;25.23
37452;BMP280;23314;51.114;6.900;2022-07-06T11:00:21;102273.56;;;25.33
37452;BMP280;23314;51.114;6.900;2022-07-06T11:02:46;102270.88;;;25.18
37452;BMP280;23314;51.114;6.900;2022-07-06T11:05:41;102264.94;;;25.19
37452;BMP280;23314;51.114;6.900;2022-07-06T11:08:09;102267.34;;;25.32
37452;BMP280;23314;51.114;6.900;2022-07-06T11:10:55;102261.09;;;25.47
37452;BMP280;23314;51.114;6.900;2022-07-06T11:13:27;102262.84;;;25.50
37452;BMP280;23314;51.114;6.900;2022-07-06T11:16:00;102262.53;;;25.63
37452;BMP280;23314;51.114;6.900;2022-07-06T11:18:28;102266.25;;;25.80
37452;BMP280;23314;51.114;6.900;2022-07-06T11:21:16;102263.56;;;25.86
37452;BMP280;23314;51.114;6.900;2022-07-06T11:23:42;102268.34;;;25.91
37452;BMP280;23314;51.114;6.900;2022-07-06T11:26:09;102257.31;;;25.85
37452;BMP280;23314;51.114;6.900;2022-07-06T11:28:37;102263.53;;;26.06
37452;BMP280;23314;51.114;6.900;2022-07-06T11:31:02;102260.72;;;26.21
37452;BMP280;23314;51.114;6.900;2022-07-06T11:33:31;102259.56;;;26.34
37452;BMP280;23314;51.114;6.900;2022-07-06T11:36:20;102255.84;;;26.37
37452;BMP280;23314;51.114;6.900;2022-07-06T11:38:47;102252.03;;;26.02
37452;BMP280;23314;51.114;6.900;2022-07-06T11:41:13;102258.28;;;25.82
37452;BMP280;23314;51.114;6.900;2022-07-06T11:43:43;102259.28;;;25.79
37452;BMP280;23314;51.114;6.900;2022-07-06T11:46:35;102260.41;;;25.72
37452;BMP280;23314;51.114;6.900;2022-07-06T11:49:05;102256.19;;;25.51
37452;BMP280;23314;51.114;6.900;2022-07-06T11:51:35;102259.38;;;25.49
37452;BMP280;23314;51.114;6.900;2022-07-06T11:54:06;102262.41;;;25.31
37452;BMP280;23314;51.114;6.900;2022-07-06T11:56:32;102264.06;;;25.28
37452;BMP280;23314;51.114;6.900;2022-07-06T11:58:59;102262.47;;;25.36
37452;BMP280;23314;51.114;6.900;2022-07-06T12:01:26;102261.38;;;25.69
37452;BMP280;23314;51.114;6.900;2022-07-06T12:03:53;102265.63;;;26.17
37452;BMP280;23314;51.114;6.900;2022-07-06T12:06:23;102254.78;;;26.55
37452;BMP280;23314;51.114;6.900;2022-07-06T12:08:53;102260.66;;;26.79
37452;BMP280;23314;51.114;6.900;2022-07-06T12:11:35;102261.34;;;27.06
37452;BMP280;23314;51.114;6.900;2022-07-06T12:14:03;102257.50;;;27.41
37452;BMP280;23314;51.114;6.900;2022-07-06T12:16:37;102255.13;;;27.77
37452;BMP280;23314;51.114;6.900;2022-07-06T12:19:03;102247.34;;;27.47
37452;BMP280;23314;51.114;6.900;2022-07-06T12:21:29;102242.59;;;27.48
37452;BMP280;23314;51.114;6.900;2022-07-06T12:23:55;102239.34;;;27.60
37452;BMP280;23314;51.114;6.900;2022-07-06T12:26:23;102241.13;;;27.64
37452;BMP280;23314;51.114;6.900;2022-07-06T12:29:03;102231.31;;;27.29
37452;BMP280;23314;51.114;6.900;2022-07-06T12:31:35;102226.94;;;27.05
37452;BMP280;23314;51.114;6.900;2022-07-06T12:34:02;102231.41;;;26.97
37452;BMP280;23314;51.114;6.900;2022-07-06T12:36:27;102214.66;;;26.89
37452;BMP280;23314;51.114;6.900;2022-07-06T12:38:53;102219.88;;;26.87
37452;BMP280;23314;51.114;6.900;2022-07-06T12:41:33;102223.72;;;27.01
37452;BMP280;23314;51.114;6.900;2022-07-06T12:44:12;102205.78;;;27.05
37452;BMP280;23314;51.114;6.900;2022-07-06T12:46:39;102216.56;;;27.20
37452;BMP280;23314;51.114;6.900;2022-07-06T12:49:16;102204.63;;;27.23
37452;BMP280;23314;51.114;6.900;2022-07-06T12:52:11;102205.69;;;27.43
37452;BMP280;23314;51.114;6.900;2022-07-06T12:54:42;102201.16;;;27.29
37452;BMP280;23314;51.114;6.900;2022-07-06T12:57:15;102199.63;;;27.22
37452;BMP280;23314;51.114;6.900;2022-07-06T12:59:46;102203.91;;;27.29
37452;BMP280;23314;51.114;6.900;2022-07-06T13:02:32;102201.94;;;27.35
37452;BMP280;23314;51.114;6.900;2022-07-06T13:07:24;102204.47;;;27.44
37452;BMP280;23314;51.114;6.900;2022-07-06T13:09:50;102216.19;;;27.50
37452;BMP280;23314;51.114;6.900;2022-07-06T13:12:15;102198.41;;;27.29
37452;BMP280;23314;51.114;6.900;2022-07-06T13:14:41;102198.63;;;27.14
37452;BMP280;23314;51.114;6.900;2022-07-06T13:17:07;102209.47;;;26.91
37452;BMP280;23314;51.114;6.900;2022-07-06T13:19:32;102208.41;;;26.89
37452;BMP280;23314;51.114;6.900;2022-07-06T13:21:58;102210.94;;;26.86
37452;BMP280;23314;51.114;6.900;2022-07-06T13:24:23;102199.88;;;26.75
37452;BMP280;23314;51.114;6.900;2022-07-06T13:26:48;102196.31;;;26.58
37452;BMP280;23314;51.114;6.900;2022-07-06T13:29:14;102190.31;;;26.59
37452;BMP280;23314;51.114;6.900;2022-07-06T13:31:39;102190.78;;;26.52
37452;BMP280;23314;51.114;6.900;2022-07-06T13:34:06;102198.75;;;26.50
37452;BMP280;23314;51.114;6.900;2022-07-06T13:36:32;102193.22;;;26.44
37452;BMP280;23314;51.114;6.900;2022-07-06T13:38:57;102193.69;;;26.37
37452;BMP280;23314;51.114;6.900;2022-07-06T13:41:23;102183.91;;;26.30
37452;BMP280;23314;51.114;6.900;2022-07-06T13:43:49;102182.38;;;26.24
37452;BMP280;23314;51.114;6.900;2022-07-06T13:46:15;102185.03;;;26.18
37452;BMP280;23314;51.114;6.900;2022-07-06T13:48:42;102171.41;;;25.92
37452;BMP280;23314;51.114;6.900;2022-07-06T13:51:08;102172.16;;;25.92
37452;BMP280;23314;51.114;6.900;2022-07-06T13:53:34;102170.78;;;26.08
37452;BMP280;23314;51.114;6.900;2022-07-06T13:55:59;102164.41;;;26.17
37452;BMP280;23314;51.114;6.900;2022-07-06T13:58:25;102172.78;;;26.40
37452;BMP280;23314;51.114;6.900;2022-07-06T14:00:50;102181.31;;;26.47
37452;BMP280;23314;51.114;6.900;2022-07-06T14:03:16;102173.28;;;26.38
37452;BMP280;23314;51.114;6.900;2022-07-06T14:05:41;102176.59;;;26.22